createdAt,value
2018-03-24T00:01:04.329Z,99.90
2018-03-24T00:03:32.686Z,99.90
2018-03-24T00:06:01.031Z,99.90
2018-03-24T00:08:29.381Z,99.90
2018-03-24T00:10:58.491Z,99.90
2018-03-24T00:13:27.623Z,99.90
2018-03-24T00:15:55.955Z,99.90
2018-03-24T00:18:25.079Z,99.90
2018-03-24T00:20:53.415Z,99.90
2018-03-24T00:23:21.772Z,99.90
2018-03-24T00:25:50.099Z,99.90
2018-03-24T00:28:18.443Z,99.90
2018-03-24T00:30:46.823Z,99.90
2018-03-24T00:33:15.167Z,99.90
2018-03-24T00:35:43.516Z,99.90
2018-03-24T00:38:11.868Z,99.90
2018-03-24T00:40:40.218Z,99.90
2018-03-24T00:43:08.757Z,99.90
2018-03-24T00:45:37.123Z,99.90
2018-03-24T00:48:05.466Z,99.90
2018-03-24T00:50:33.812Z,99.90
2018-03-24T00:53:02.160Z,99.90
2018-03-24T00:55:30.511Z,99.90
2018-03-24T00:57:58.929Z,99.90
2018-03-24T01:00:27.089Z,99.90
2018-03-24T01:02:55.439Z,99.90
2018-03-24T01:05:24.551Z,99.90
2018-03-24T01:07:53.671Z,99.90
2018-03-24T01:10:22.027Z,99.90
2018-03-24T01:12:50.379Z,99.90
2018-03-24T01:15:18.719Z,99.90
2018-03-24T01:17:47.827Z,99.90
2018-03-24T01:20:16.180Z,99.90
2018-03-24T01:22:44.518Z,99.90
2018-03-24T01:25:13.629Z,99.90
2018-03-24T01:27:41.972Z,99.90
2018-03-24T01:30:10.321Z,99.90
2018-03-24T01:32:38.655Z,99.90
2018-03-24T01:35:07.763Z,99.90
2018-03-24T01:37:36.115Z,99.90
2018-03-24T01:40:03.831Z,99.90
2018-03-24T01:42:32.220Z,99.90
2018-03-24T01:45:00.556Z,99.90
2018-03-24T01:47:28.906Z,99.90
2018-03-24T01:49:57.239Z,99.90
2018-03-24T01:52:25.596Z,99.90
2018-03-24T01:54:53.936Z,99.90
2018-03-24T01:57:22.263Z,99.90
2018-03-24T01:59:50.719Z,99.90
2018-03-24T02:02:19.063Z,99.90
2018-03-24T02:04:47.406Z,99.90
2018-03-24T02:07:16.248Z,99.90
2018-03-24T02:09:44.620Z,99.90
2018-03-24T02:12:13.760Z,99.90
2018-03-24T02:14:42.113Z,99.90
2018-03-24T02:17:10.444Z,99.90
2018-03-24T02:19:38.795Z,99.90
2018-03-24T02:22:07.148Z,99.90
2018-03-24T02:24:54.175Z,99.90
2018-03-24T02:27:22.512Z,99.90
2018-03-24T02:29:50.856Z,99.90
2018-03-24T02:32:19.211Z,99.90
2018-03-24T02:34:47.548Z,99.90
2018-03-24T02:37:15.942Z,99.90
2018-03-24T02:39:45.037Z,99.90
2018-03-24T02:42:14.169Z,99.90
2018-03-24T02:44:42.504Z,99.90
2018-03-24T02:47:11.642Z,99.90
2018-03-24T02:49:39.978Z,99.90
2018-03-24T02:52:09.085Z,99.90
2018-03-24T02:54:38.209Z,99.90
2018-03-24T02:57:06.553Z,99.90
2018-03-24T02:59:34.911Z,99.90
2018-03-24T03:02:03.248Z,99.90
2018-03-24T03:04:31.617Z,99.90
2018-03-24T03:06:59.953Z,99.90
2018-03-24T03:09:29.072Z,99.90
2018-03-24T03:11:57.415Z,99.90
2018-03-24T03:14:25.762Z,99.90
2018-03-24T03:16:54.102Z,99.90
2018-03-24T03:19:22.450Z,99.90
2018-03-24T03:21:52.529Z,99.90
2018-03-24T03:24:20.863Z,99.90
2018-03-24T03:26:49.976Z,99.90
2018-03-24T03:29:18.331Z,99.90
2018-03-24T03:31:50.928Z,99.90
2018-03-24T03:34:19.269Z,99.90
2018-03-24T03:36:47.611Z,99.90
2018-03-24T03:39:15.975Z,99.90
2018-03-24T03:41:44.311Z,99.90
2018-03-24T03:44:13.437Z,99.90
2018-03-24T03:46:41.770Z,99.90
2018-03-24T03:49:10.127Z,99.90
2018-03-24T03:51:38.452Z,99.90
2018-03-24T03:54:06.813Z,99.90
2018-03-24T03:56:35.916Z,99.90
2018-03-24T03:59:05.022Z,99.90
2018-03-24T04:01:34.149Z,99.90
2018-03-24T04:04:02.484Z,99.90
2018-03-24T04:06:31.829Z,99.90
2018-03-24T04:09:00.388Z,99.90
2018-03-24T04:11:29.122Z,99.90
2018-03-24T04:13:57.467Z,99.90
2018-03-24T04:16:25.828Z,99.90
2018-03-24T04:18:54.186Z,99.90
2018-03-24T04:21:23.310Z,99.90
2018-03-24T04:23:51.652Z,99.90
2018-03-24T04:26:20.751Z,99.90
2018-03-24T04:28:49.873Z,99.90
2018-03-24T04:31:18.220Z,99.90
2018-03-24T04:33:47.350Z,99.90
2018-03-24T04:36:15.688Z,99.90
2018-03-24T04:38:44.835Z,99.90
2018-03-24T04:41:13.180Z,99.90
2018-03-24T04:43:42.276Z,99.90
2018-03-24T04:46:10.940Z,99.90
2018-03-24T04:48:39.292Z,99.90
2018-03-24T04:51:07.631Z,99.90
2018-03-24T04:53:35.975Z,99.90
2018-03-24T04:56:04.783Z,99.90
2018-03-24T04:58:33.339Z,99.90
2018-03-24T05:01:02.439Z,99.90
2018-03-24T05:03:31.558Z,99.90
2018-03-24T05:06:00.791Z,99.90
2018-03-24T05:08:29.122Z,99.90
2018-03-24T05:10:58.269Z,99.90
2018-03-24T05:13:26.635Z,99.90
2018-03-24T05:15:54.975Z,99.90
2018-03-24T05:18:24.455Z,99.90
2018-03-24T05:20:52.492Z,99.90
2018-03-24T05:23:20.866Z,99.90
2018-03-24T05:25:49.196Z,99.90
2018-03-24T05:28:18.303Z,99.90
2018-03-24T05:30:47.439Z,99.90
2018-03-24T05:33:15.779Z,99.90
2018-03-24T05:35:44.119Z,99.90
2018-03-24T05:38:12.512Z,99.90
2018-03-24T05:40:40.851Z,99.90
2018-03-24T05:43:09.195Z,99.90
2018-03-24T05:45:37.559Z,99.90
2018-03-24T05:48:06.683Z,99.90
2018-03-24T05:50:35.057Z,99.90
2018-03-24T05:53:03.415Z,99.90
2018-03-24T05:55:32.523Z,99.90
2018-03-24T05:58:00.881Z,99.90
2018-03-24T06:00:31.031Z,99.90
2018-03-24T06:02:59.382Z,99.90
2018-03-24T06:05:28.486Z,99.90
2018-03-24T06:07:57.070Z,99.90
2018-03-24T06:10:25.407Z,99.90
2018-03-24T06:12:53.749Z,99.90
2018-03-24T06:15:22.103Z,99.90
2018-03-24T06:17:50.591Z,99.90
2018-03-24T06:20:18.967Z,99.90
2018-03-24T06:22:47.617Z,99.90
2018-03-24T06:25:15.965Z,99.90
2018-03-24T06:27:44.307Z,99.90
2018-03-24T06:30:23.175Z,99.90
2018-03-24T06:32:51.324Z,99.90
2018-03-24T06:35:19.573Z,99.90
2018-03-24T06:37:49.378Z,99.90
2018-03-24T06:40:17.561Z,99.90
2018-03-24T06:42:45.902Z,99.90
2018-03-24T06:45:14.271Z,99.90
2018-03-24T06:47:42.618Z,99.90
2018-03-24T06:50:11.349Z,99.90
2018-03-24T06:52:39.695Z,99.90
2018-03-24T06:55:07.912Z,99.90
2018-03-24T06:57:37.026Z,99.90
2018-03-24T07:00:05.430Z,99.90
2018-03-24T07:02:33.810Z,99.90
2018-03-24T07:05:02.160Z,99.90
2018-03-24T07:07:30.507Z,99.90
2018-03-24T07:09:58.870Z,99.90
2018-03-24T07:12:27.215Z,99.90
2018-03-24T07:14:55.586Z,99.90
2018-03-24T07:17:23.936Z,99.90
2018-03-24T07:19:53.042Z,99.90
2018-03-24T07:22:21.431Z,99.90
2018-03-24T07:24:49.793Z,99.90
2018-03-24T07:27:18.156Z,99.90
2018-03-24T07:29:47.260Z,99.90
2018-03-24T07:32:15.619Z,99.90
2018-03-24T07:34:45.238Z,99.90
2018-03-24T07:37:14.356Z,99.90
2018-03-24T07:39:42.767Z,99.90
2018-03-24T07:42:11.100Z,99.90
2018-03-24T07:44:39.524Z,99.90
2018-03-24T07:47:07.880Z,99.90
2018-03-24T07:49:36.224Z,99.90
2018-03-24T07:52:05.346Z,99.90
2018-03-24T07:54:33.700Z,99.90
2018-03-24T07:57:02.806Z,99.90
2018-03-24T07:59:31.956Z,99.90
2018-03-24T08:02:00.294Z,99.90
2018-03-24T08:04:28.775Z,99.90
2018-03-24T08:06:57.197Z,99.90
2018-03-24T08:09:25.539Z,99.90
2018-03-24T08:11:53.904Z,99.90
2018-03-24T08:14:22.259Z,99.90
2018-03-24T08:16:51.671Z,99.90
2018-03-24T08:19:20.177Z,99.90
2018-03-24T08:21:48.526Z,99.90
2018-03-24T08:24:17.770Z,99.90
2018-03-24T08:26:46.154Z,99.90
2018-03-24T08:29:14.517Z,99.90
2018-03-24T08:31:42.893Z,99.90
2018-03-24T08:34:11.248Z,99.90
2018-03-24T08:36:39.604Z,99.90
2018-03-24T08:39:08.788Z,99.90
2018-03-24T08:41:37.231Z,99.90
2018-03-24T08:44:05.612Z,99.90
2018-03-24T08:46:34.118Z,99.90
2018-03-24T08:49:02.474Z,99.90
2018-03-24T08:51:31.087Z,99.90
2018-03-24T08:53:59.759Z,99.90
2018-03-24T08:56:28.100Z,99.90
2018-03-24T08:58:56.446Z,99.90
2018-03-24T09:01:25.679Z,99.90
2018-03-24T09:03:54.024Z,99.90
2018-03-24T09:06:23.161Z,99.90
2018-03-24T09:08:51.562Z,99.90
2018-03-24T09:11:20.070Z,99.90
2018-03-24T09:13:48.444Z,99.90
2018-03-24T09:16:16.796Z,99.90
2018-03-24T09:18:45.222Z,99.90
2018-03-24T09:21:14.336Z,99.90
2018-03-24T09:23:42.675Z,99.90
2018-03-24T09:26:11.032Z,99.90
2018-03-24T09:28:39.046Z,99.90
2018-03-24T09:31:07.416Z,99.90
2018-03-24T09:33:36.530Z,99.90
2018-03-24T09:36:04.892Z,99.90
2018-03-24T09:38:33.256Z,99.90
2018-03-24T09:41:02.368Z,99.90
2018-03-24T09:43:31.495Z,99.90
2018-03-24T09:45:59.849Z,99.90
2018-03-24T09:48:28.203Z,99.90
2018-03-24T09:50:57.363Z,99.90
2018-03-24T09:53:25.725Z,99.90
2018-03-24T09:55:53.934Z,99.90
2018-03-24T09:58:22.286Z,99.90
2018-03-24T10:00:50.624Z,99.90
2018-03-24T10:03:18.998Z,99.90
2018-03-24T10:05:47.509Z,99.90
2018-03-24T10:08:15.892Z,99.90
2018-03-24T10:10:44.237Z,99.90
2018-03-24T10:13:12.492Z,99.90
2018-03-24T10:15:40.849Z,99.90
2018-03-24T10:18:09.236Z,99.90
2018-03-24T10:24:01.192Z,99.90
2018-03-24T10:26:29.585Z,99.90
2018-03-24T10:28:58.840Z,99.90
2018-03-24T10:31:27.200Z,99.90
2018-03-24T10:34:01.023Z,99.90
2018-03-24T10:36:29.368Z,99.90
2018-03-24T10:38:58.005Z,99.90
2018-03-24T10:41:26.381Z,97.70
2018-03-24T10:43:54.910Z,99.30
2018-03-24T10:46:23.274Z,95.80
2018-03-24T10:48:51.628Z,97.80
2018-03-24T10:51:20.099Z,95.40
2018-03-24T10:53:48.484Z,94.10
2018-03-24T10:56:16.836Z,94.20
2018-03-24T10:58:45.227Z,92.50
2018-03-24T11:01:13.947Z,92.30
2018-03-24T11:03:43.088Z,92.90
2018-03-24T11:06:11.252Z,92.90
2018-03-24T11:08:39.608Z,94.80
2018-03-24T11:11:07.979Z,91.30
2018-03-24T11:13:36.333Z,92.40
2018-03-24T11:16:04.688Z,85.70
2018-03-24T11:18:33.040Z,85.90
2018-03-24T11:21:01.419Z,87.10
2018-03-24T11:23:29.775Z,87.40
2018-03-24T11:25:58.127Z,88.40
2018-03-24T11:28:27.252Z,91.80
2018-03-24T11:30:55.606Z,91.80
2018-03-24T11:33:24.547Z,86.40
2018-03-24T11:35:52.901Z,86.30
2018-03-24T11:38:21.264Z,87.90
2018-03-24T11:40:49.631Z,88.00
2018-03-24T11:43:18.744Z,88.00
2018-03-24T11:45:47.153Z,88.00
2018-03-24T11:48:16.427Z,80.90
2018-03-24T11:50:44.775Z,80.60
2018-03-24T11:53:13.916Z,80.80
2018-03-24T11:55:42.267Z,81.00
2018-03-24T11:58:11.393Z,79.20
2018-03-24T12:00:39.840Z,79.20
2018-03-24T12:03:09.001Z,83.70
2018-03-24T12:05:37.389Z,83.70
2018-03-24T12:08:05.761Z,79.50
2018-03-24T12:10:34.099Z,75.00
2018-03-24T12:13:02.517Z,75.90
2018-03-24T12:15:30.862Z,77.90
2018-03-24T12:17:59.221Z,77.70
2018-03-24T12:20:27.572Z,73.30
2018-03-24T12:22:56.676Z,76.40
2018-03-24T12:25:25.037Z,76.50
2018-03-24T12:27:54.186Z,80.30
2018-03-24T12:30:22.565Z,80.10
2018-03-24T12:32:50.904Z,76.50
2018-03-24T12:35:20.105Z,74.30
2018-03-24T12:37:48.455Z,74.30
2018-03-24T12:40:16.815Z,70.00
2018-03-24T12:42:45.226Z,67.10
2018-03-24T12:45:14.331Z,67.50
2018-03-24T12:47:43.447Z,68.00
2018-03-24T12:50:11.811Z,67.90
2018-03-24T12:52:40.166Z,68.80
2018-03-24T12:55:09.289Z,65.80
2018-03-24T12:57:37.683Z,65.90
2018-03-24T13:00:05.716Z,65.30
2018-03-24T13:02:34.844Z,63.20
2018-03-24T13:05:03.395Z,63.30
2018-03-24T13:07:32.617Z,63.00
2018-03-24T13:10:00.988Z,63.00
2018-03-24T13:12:29.390Z,61.60
2018-03-24T13:14:57.743Z,61.60
2018-03-24T13:17:26.089Z,58.60
2018-03-24T13:19:55.224Z,62.00
2018-03-24T13:22:23.779Z,61.90
2018-03-24T13:24:52.895Z,61.20
2018-03-24T13:27:21.280Z,61.20
2018-03-24T13:29:49.641Z,66.50
2018-03-24T13:32:18.014Z,63.80
2018-03-24T13:34:46.410Z,62.70
2018-03-24T13:37:14.955Z,64.80
2018-03-24T13:39:44.075Z,65.40
2018-03-24T13:42:12.448Z,64.70
2018-03-24T13:44:41.572Z,60.60
2018-03-24T13:47:09.918Z,60.50
2018-03-24T13:49:38.260Z,62.00
2018-03-24T13:52:06.625Z,63.80
2018-03-24T13:54:34.963Z,66.70
2018-03-24T13:57:03.319Z,61.20
2018-03-24T13:59:32.460Z,63.50
2018-03-24T14:02:00.814Z,63.50
2018-03-24T14:04:29.163Z,62.40
2018-03-24T14:06:58.267Z,66.20
2018-03-24T14:09:27.414Z,66.90
2018-03-24T14:11:55.849Z,66.80
2018-03-24T14:14:24.981Z,68.00
2018-03-24T14:16:53.660Z,68.00
2018-03-24T14:19:22.008Z,70.20
2018-03-24T14:21:51.139Z,69.90
2018-03-24T14:24:19.519Z,69.80
2018-03-24T14:26:47.893Z,69.80
2018-03-24T14:29:16.277Z,72.90
2018-03-24T14:31:44.647Z,73.30
2018-03-24T14:34:13.281Z,74.60
2018-03-24T14:36:43.233Z,76.80
2018-03-24T14:39:11.585Z,76.90
2018-03-24T14:41:40.740Z,77.10
2018-03-24T14:44:09.298Z,77.00
2018-03-24T14:46:37.682Z,76.50
2018-03-24T14:49:05.844Z,77.90
2018-03-24T14:51:34.174Z,78.60
2018-03-24T14:54:02.550Z,79.60
2018-03-24T14:56:30.940Z,77.70
2018-03-24T14:59:00.095Z,79.20
2018-03-24T15:01:28.458Z,78.50
2018-03-24T15:03:56.830Z,79.00
2018-03-24T15:06:25.190Z,81.90
2018-03-24T15:08:55.143Z,82.60
2018-03-24T15:11:23.507Z,82.60
2018-03-24T15:13:51.949Z,83.70
2018-03-24T15:16:21.155Z,83.30
2018-03-24T15:18:49.540Z,83.30
2018-03-24T15:21:17.892Z,84.30
2018-03-24T15:23:46.267Z,85.40
2018-03-24T15:26:14.616Z,85.20
2018-03-24T15:28:54.157Z,83.30
2018-03-24T15:31:33.619Z,85.60
2018-03-24T15:34:13.296Z,84.60
2018-03-24T15:36:46.684Z,86.30
2018-03-24T15:39:15.132Z,86.90
2018-03-24T15:41:43.648Z,88.80
2018-03-24T15:44:12.021Z,86.60
2018-03-24T15:46:41.140Z,91.10
2018-03-24T15:49:09.507Z,91.10
2018-03-24T15:51:37.879Z,88.70
2018-03-24T15:54:06.662Z,87.50
2018-03-24T15:56:35.784Z,90.20
2018-03-24T15:59:03.834Z,90.20
2018-03-24T16:01:32.184Z,87.80
2018-03-24T16:04:01.597Z,91.90
2018-03-24T16:06:30.835Z,93.10
2018-03-24T16:08:59.189Z,93.10
2018-03-24T16:11:27.561Z,93.80
2018-03-24T16:13:56.858Z,94.80
2018-03-24T16:16:26.000Z,95.20
2018-03-24T16:18:54.341Z,95.10
2018-03-24T16:21:22.720Z,95.40
2018-03-24T16:23:51.273Z,96.50
2018-03-24T16:26:19.611Z,96.00
2018-03-24T16:28:48.386Z,95.80
2018-03-24T16:31:16.742Z,96.80
2018-03-24T16:33:45.095Z,97.70
2018-03-24T16:36:13.472Z,97.50
2018-03-24T16:38:42.026Z,97.70
2018-03-24T16:41:10.377Z,98.40
2018-03-24T16:43:38.763Z,98.90
2018-03-24T16:46:07.112Z,99.20
2018-03-24T16:48:36.252Z,99.00
2018-03-24T16:51:04.284Z,99.80
2018-03-24T16:53:34.443Z,99.90
2018-03-24T16:56:02.818Z,99.90
2018-03-24T16:58:31.172Z,99.90
2018-03-24T17:01:00.024Z,99.90
2018-03-24T17:03:29.533Z,99.90
2018-03-24T17:05:57.903Z,99.90
2018-03-24T17:08:26.497Z,99.90
2018-03-24T17:10:54.854Z,99.90
2018-03-24T17:13:24.007Z,99.90
2018-03-24T17:15:52.383Z,99.90
2018-03-24T17:18:20.962Z,99.90
2018-03-24T17:20:49.319Z,99.90
2018-03-24T17:23:17.696Z,99.90
2018-03-24T17:25:46.828Z,99.90
2018-03-24T17:28:15.176Z,99.90
2018-03-24T17:30:43.612Z,99.90
2018-03-24T17:33:12.760Z,99.90
2018-03-24T17:35:42.164Z,99.90
2018-03-24T17:38:10.564Z,99.90
2018-03-24T17:40:38.988Z,99.90
2018-03-24T17:43:08.152Z,99.90
2018-03-24T17:45:37.332Z,99.90
2018-03-24T17:48:05.688Z,99.90
2018-03-24T17:50:33.897Z,99.90
2018-03-24T17:53:02.235Z,99.90
2018-03-24T17:55:30.592Z,99.90
2018-03-24T17:58:00.620Z,99.90
2018-03-24T18:00:29.322Z,99.90
2018-03-24T18:02:57.709Z,99.90
2018-03-24T18:05:26.233Z,99.90
2018-03-24T18:07:54.644Z,99.90
2018-03-24T18:10:23.063Z,99.90
2018-03-24T18:12:51.414Z,99.90
2018-03-24T18:15:20.770Z,99.90
2018-03-24T18:17:49.113Z,99.90
2018-03-24T18:20:17.725Z,99.90
2018-03-24T18:22:46.086Z,99.90
2018-03-24T18:25:14.424Z,99.90
2018-03-24T18:27:43.561Z,99.90
2018-03-24T18:30:11.785Z,99.90
2018-03-24T18:32:40.470Z,99.90
2018-03-24T18:35:08.813Z,99.90
2018-03-24T18:37:37.147Z,99.90
2018-03-24T18:40:05.184Z,99.90
2018-03-24T18:42:35.058Z,99.90
2018-03-24T18:45:03.460Z,99.90
2018-03-24T18:47:31.820Z,99.90
2018-03-24T18:50:00.155Z,99.90
2018-03-24T18:52:29.279Z,99.90
2018-03-24T18:54:57.623Z,99.90
2018-03-24T18:57:26.755Z,99.90
2018-03-24T18:59:55.095Z,99.90
2018-03-24T19:02:24.348Z,99.90
2018-03-24T19:04:52.706Z,99.90
2018-03-24T19:07:21.046Z,99.90
2018-03-24T19:09:50.394Z,99.90
2018-03-24T19:12:18.824Z,99.90
2018-03-24T19:14:47.946Z,99.90
2018-03-24T19:17:16.543Z,99.90
2018-03-24T19:19:45.010Z,99.90
2018-03-24T19:22:13.410Z,99.90
2018-03-24T19:24:41.836Z,99.90
2018-03-24T19:27:11.011Z,99.90
2018-03-24T19:29:40.141Z,99.90
2018-03-24T19:32:08.504Z,99.90
2018-03-24T19:34:36.891Z,99.90
2018-03-24T19:37:06.031Z,99.90
2018-03-24T19:39:34.385Z,99.90
2018-03-24T19:42:02.830Z,99.90
2018-03-24T19:44:31.186Z,99.90
2018-03-24T19:46:59.669Z,99.90
2018-03-24T19:49:28.035Z,99.90
2018-03-24T19:51:56.655Z,99.90
2018-03-24T19:54:25.051Z,99.90
2018-03-24T19:56:54.265Z,99.90
2018-03-24T19:59:22.654Z,99.90
2018-03-24T20:01:51.007Z,99.90
2018-03-24T20:04:20.129Z,99.90
2018-03-24T20:06:48.520Z,99.90
2018-03-24T20:09:16.941Z,99.90
2018-03-24T20:11:45.451Z,99.90
2018-03-24T20:14:13.830Z,99.90
2018-03-24T20:16:52.653Z,99.90
2018-03-24T20:19:21.025Z,99.90
2018-03-24T20:21:50.433Z,99.90
2018-03-24T20:24:18.939Z,99.90
2018-03-24T20:26:47.138Z,99.90
2018-03-24T20:29:15.847Z,99.90
2018-03-24T20:31:44.791Z,99.90
2018-03-24T20:34:13.179Z,99.90
2018-03-24T20:36:41.600Z,99.90
2018-03-24T20:39:10.711Z,99.90
2018-03-24T20:41:39.247Z,99.90
2018-03-24T20:44:11.297Z,99.90
2018-03-24T20:46:39.686Z,99.90
2018-03-24T20:49:08.662Z,99.90
2018-03-24T20:51:37.021Z,99.90
2018-03-24T20:54:07.088Z,99.90
2018-03-24T20:56:35.574Z,99.90
2018-03-24T20:59:03.917Z,99.90
2018-03-24T21:01:32.326Z,99.90
2018-03-24T21:04:00.748Z,99.90
2018-03-24T21:06:29.125Z,99.90
2018-03-24T21:08:57.480Z,99.90
2018-03-24T21:11:26.585Z,99.90
2018-03-24T21:13:55.705Z,99.90
2018-03-24T21:16:24.071Z,99.90
2018-03-24T21:18:52.813Z,99.90
2018-03-24T21:21:21.168Z,99.90
2018-03-24T21:23:49.534Z,99.90
2018-03-24T21:26:17.908Z,99.90
2018-03-24T21:28:46.267Z,99.90
2018-03-24T21:31:14.628Z,99.90
2018-03-24T21:33:43.756Z,99.90
2018-03-24T21:36:12.149Z,99.90
2018-03-24T21:38:40.492Z,99.90
2018-03-24T21:41:08.823Z,99.90
2018-03-24T21:43:37.189Z,99.90
2018-03-24T21:46:05.545Z,99.90
2018-03-24T21:48:33.927Z,99.90
2018-03-24T21:51:02.315Z,99.90
2018-03-24T21:53:30.826Z,99.90
2018-03-24T21:56:00.087Z,99.90
2018-03-24T21:58:28.446Z,99.90
2018-03-24T22:00:56.636Z,99.90
2018-03-24T22:03:25.189Z,99.90
2018-03-24T22:05:54.315Z,99.90
2018-03-24T22:08:22.668Z,99.90
2018-03-24T22:10:51.003Z,99.90
2018-03-24T22:13:19.359Z,99.90
2018-03-24T22:15:47.731Z,99.90
2018-03-24T22:18:15.919Z,99.90
2018-03-24T22:20:44.532Z,99.90
2018-03-24T22:23:15.627Z,99.90
2018-03-24T22:25:44.056Z,99.90
2018-03-24T22:28:13.182Z,99.90
2018-03-24T22:30:41.562Z,99.90
2018-03-24T22:33:09.909Z,99.90
2018-03-24T22:35:39.029Z,99.90
2018-03-24T22:38:07.384Z,99.90
2018-03-24T22:40:36.518Z,99.90
2018-03-24T22:43:04.921Z,99.90
2018-03-24T22:45:34.398Z,99.90
2018-03-24T22:48:02.777Z,99.90
2018-03-24T22:50:31.182Z,99.90
2018-03-24T22:52:59.516Z,99.90
2018-03-24T22:55:27.874Z,99.90
2018-03-24T22:57:57.010Z,99.90
2018-03-24T23:00:25.047Z,99.90
2018-03-24T23:02:54.180Z,99.90
2018-03-24T23:05:22.534Z,99.90
2018-03-24T23:07:50.920Z,99.90
2018-03-24T23:10:19.343Z,99.90
2018-03-24T23:12:47.701Z,99.90
2018-03-24T23:15:16.467Z,99.90
2018-03-24T23:17:44.813Z,99.90
2018-03-24T23:20:13.924Z,99.90
2018-03-24T23:22:42.287Z,99.90
2018-03-24T23:25:11.398Z,99.90
2018-03-24T23:27:40.521Z,99.90
2018-03-24T23:30:08.856Z,99.90
2018-03-24T23:32:37.993Z,99.90
2018-03-24T23:35:06.381Z,99.90
2018-03-24T23:37:34.710Z,99.90
2018-03-24T23:40:03.917Z,99.90
2018-03-24T23:42:32.397Z,99.90
2018-03-24T23:45:00.748Z,99.90
2018-03-24T23:47:29.091Z,99.90
2018-03-24T23:49:57.444Z,99.90
2018-03-24T23:52:25.799Z,99.90
2018-03-24T23:54:54.915Z,99.90
2018-03-24T23:57:23.316Z,99.90
2018-03-24T23:59:51.661Z,99.90
